sensor_id;sensor_type;location;lat;lon;timestamp;temperature;humidity
65824;SHT31;52585;47.566;19.056;2023-03-20T00:02:02;9.48;58.64
65824;SHT31;52585;47.566;19.056;2023-03-20T00:04:30;9.50;58.51
65824;SHT31;52585;47.566;19.056;2023-03-20T00:06:56;9.53;58.35
65824;SHT31;52585;47.566;19.056;2023-03-20T00:09:22;9.54;58.41
65824;SHT31;52585;47.566;19.056;2023-03-20T00:11:50;9.55;58.33
65824;SHT31;52585;47.566;19.056;2023-03-20T00:14:18;9.56;58.34
65824;SHT31;52585;47.566;19.056;2023-03-20T00:16:49;9.55;58.23
65824;SHT31;52585;47.566;19.056;2023-03-20T00:19:16;9.54;58.03
65824;SHT31;52585;47.566;19.056;2023-03-20T00:21:48;9.54;58.09
65824;SHT31;52585;47.566;19.056;2023-03-20T00:24:16;9.53;58.13
65824;SHT31;52585;47.566;19.056;2023-03-20T00:26:45;9.52;58.12
65824;SHT31;52585;47.566;19.056;2023-03-20T00:29:26;9.48;58.20
65824;SHT31;52585;47.566;19.056;2023-03-20T00:31:55;9.46;58.26
65824;SHT31;52585;47.566;19.056;2023-03-20T00:34:24;9.44;58.26
65824;SHT31;52585;47.566;19.056;2023-03-20T00:36:53;9.42;58.30
65824;SHT31;52585;47.566;19.056;2023-03-20T00:39:20;9.38;58.53
65824;SHT31;52585;47.566;19.056;2023-03-20T00:41:52;9.35;58.51
65824;SHT31;52585;47.566;19.056;2023-03-20T00:44:25;9.35;58.60
65824;SHT31;52585;47.566;19.056;2023-03-20T00:47:11;9.31;58.52
65824;SHT31;52585;47.566;19.056;2023-03-20T00:49:43;9.28;58.50
65824;SHT31;52585;47.566;19.056;2023-03-20T00:52:15;9.26;58.47
65824;SHT31;52585;47.566;19.056;2023-03-20T00:54:43;9.23;58.44
65824;SHT31;52585;47.566;19.056;2023-03-20T00:57:26;9.19;58.53
65824;SHT31;52585;47.566;19.056;2023-03-20T01:00:22;9.16;58.52
65824;SHT31;52585;47.566;19.056;2023-03-20T01:02:57;9.14;58.51
65824;SHT31;52585;47.566;19.056;2023-03-20T01:05:24;9.13;58.55
65824;SHT31;52585;47.566;19.056;2023-03-20T01:07:51;9.10;58.58
65824;SHT31;52585;47.566;19.056;2023-03-20T01:10:17;9.07;58.71
65824;SHT31;52585;47.566;19.056;2023-03-20T01:12:43;9.05;58.78
65824;SHT31;52585;47.566;19.056;2023-03-20T01:15:22;9.02;58.87
65824;SHT31;52585;47.566;19.056;2023-03-20T01:17:51;9.00;59.00
65824;SHT31;52585;47.566;19.056;2023-03-20T01:20:19;8.98;59.00
65824;SHT31;52585;47.566;19.056;2023-03-20T01:22:49;8.96;59.06
65824;SHT31;52585;47.566;19.056;2023-03-20T01:25:15;8.92;59.12
65824;SHT31;52585;47.566;19.056;2023-03-20T01:27:43;8.89;59.09
65824;SHT31;52585;47.566;19.056;2023-03-20T01:30:31;8.87;59.19
65824;SHT31;52585;47.566;19.056;2023-03-20T01:32:58;8.84;59.25
65824;SHT31;52585;47.566;19.056;2023-03-20T01:35:26;8.81;59.21
65824;SHT31;52585;47.566;19.056;2023-03-20T01:37:53;8.79;59.24
65824;SHT31;52585;47.566;19.056;2023-03-20T01:43:27;8.76;59.23
65824;SHT31;52585;47.566;19.056;2023-03-20T01:45:55;8.74;59.28
65824;SHT31;52585;47.566;19.056;2023-03-20T01:51:25;8.68;59.47
65824;SHT31;52585;47.566;19.056;2023-03-20T01:53:57;8.65;59.60
65824;SHT31;52585;47.566;19.056;2023-03-20T01:56:31;8.62;59.62
65824;SHT31;52585;47.566;19.056;2023-03-20T01:59:09;8.60;59.89
65824;SHT31;52585;47.566;19.056;2023-03-20T02:01:45;8.57;59.95
65824;SHT31;52585;47.566;19.056;2023-03-20T02:04:11;8.56;59.95
65824;SHT31;52585;47.566;19.056;2023-03-20T02:06:41;8.54;59.90
65824;SHT31;52585;47.566;19.056;2023-03-20T02:09:10;8.51;60.10
65824;SHT31;52585;47.566;19.056;2023-03-20T02:11:40;8.49;60.03
65824;SHT31;52585;47.566;19.056;2023-03-20T02:14:27;8.46;60.23
65824;SHT31;52585;47.566;19.056;2023-03-20T02:16:55;8.43;60.37
65824;SHT31;52585;47.566;19.056;2023-03-20T02:19:43;8.41;60.44
65824;SHT31;52585;47.566;19.056;2023-03-20T02:31:28;8.33;60.48
65824;SHT31;52585;47.566;19.056;2023-03-20T02:34:21;8.31;60.51
65824;SHT31;52585;47.566;19.056;2023-03-20T02:43:16;8.26;60.62
65824;SHT31;52585;47.566;19.056;2023-03-20T02:51:38;8.19;60.60
65824;SHT31;52585;47.566;19.056;2023-03-20T02:54:27;8.17;60.61
65824;SHT31;52585;47.566;19.056;2023-03-20T02:57:03;8.13;60.58
65824;SHT31;52585;47.566;19.056;2023-03-20T02:59:46;8.11;60.58
65824;SHT31;52585;47.566;19.056;2023-03-20T03:05:07;8.03;61.08
65824;SHT31;52585;47.566;19.056;2023-03-20T03:07:40;7.97;61.65
65824;SHT31;52585;47.566;19.056;2023-03-20T03:10:16;7.93;61.68
65824;SHT31;52585;47.566;19.056;2023-03-20T03:12:56;7.87;61.76
65824;SHT31;52585;47.566;19.056;2023-03-20T03:15:26;7.84;61.46
65824;SHT31;52585;47.566;19.056;2023-03-20T03:17:58;7.81;61.53
65824;SHT31;52585;47.566;19.056;2023-03-20T03:20:28;7.78;61.65
65824;SHT31;52585;47.566;19.056;2023-03-20T03:22:58;7.76;61.37
65824;SHT31;52585;47.566;19.056;2023-03-20T03:25:26;7.76;61.35
65824;SHT31;52585;47.566;19.056;2023-03-20T03:28:11;7.75;61.26
65824;SHT31;52585;47.566;19.056;2023-03-20T03:30:51;7.73;61.24
65824;SHT31;52585;47.566;19.056;2023-03-20T03:33:22;7.72;61.46
65824;SHT31;52585;47.566;19.056;2023-03-20T03:35:57;7.70;61.48
65824;SHT31;52585;47.566;19.056;2023-03-20T03:39:15;7.65;61.53
65824;SHT31;52585;47.566;19.056;2023-03-20T03:50:47;7.50;61.65
65824;SHT31;52585;47.566;19.056;2023-03-20T03:53:22;7.49;61.68
65824;SHT31;52585;47.566;19.056;2023-03-20T03:55:59;7.49;61.99
65824;SHT31;52585;47.566;19.056;2023-03-20T03:58:38;7.48;62.28
65824;SHT31;52585;47.566;19.056;2023-03-20T04:01:09;7.47;62.15
65824;SHT31;52585;47.566;19.056;2023-03-20T04:03:39;7.49;62.24
65824;SHT31;52585;47.566;19.056;2023-03-20T04:06:13;7.47;62.07
65824;SHT31;52585;47.566;19.056;2023-03-20T04:08:41;7.45;61.96
65824;SHT31;52585;47.566;19.056;2023-03-20T04:11:13;7.43;61.97
65824;SHT31;52585;47.566;19.056;2023-03-20T04:13:42;7.42;62.05
65824;SHT31;52585;47.566;19.056;2023-03-20T04:16:12;7.42;61.97
65824;SHT31;52585;47.566;19.056;2023-03-20T04:18:39;7.40;61.80
65824;SHT31;52585;47.566;19.056;2023-03-20T04:21:05;7.39;61.81
65824;SHT31;52585;47.566;19.056;2023-03-20T04:23:31;7.37;61.82
65824;SHT31;52585;47.566;19.056;2023-03-20T04:25:57;7.35;61.86
65824;SHT31;52585;47.566;19.056;2023-03-20T04:28:24;7.32;61.84
65824;SHT31;52585;47.566;19.056;2023-03-20T04:30:53;7.30;61.84
65824;SHT31;52585;47.566;19.056;2023-03-20T04:33:21;7.26;61.95
65824;SHT31;52585;47.566;19.056;2023-03-20T04:35:49;7.23;61.98
65824;SHT31;52585;47.566;19.056;2023-03-20T04:38:16;7.20;62.02
65824;SHT31;52585;47.566;19.056;2023-03-20T04:40:43;7.18;62.08
65824;SHT31;52585;47.566;19.056;2023-03-20T04:43:10;7.14;62.06
65824;SHT31;52585;47.566;19.056;2023-03-20T04:45:38;7.11;62.12
65824;SHT31;52585;47.566;19.056;2023-03-20T04:48:03;7.09;62.28
65824;SHT31;52585;47.566;19.056;2023-03-20T04:50:30;7.08;62.19
65824;SHT31;52585;47.566;19.056;2023-03-20T04:52:56;7.07;62.20
65824;SHT31;52585;47.566;19.056;2023-03-20T04:55:22;7.07;62.13
65824;SHT31;52585;47.566;19.056;2023-03-20T04:57:48;7.06;62.24
65824;SHT31;52585;47.566;19.056;2023-03-20T05:00:15;7.03;62.36
65824;SHT31;52585;47.566;19.056;2023-03-20T05:02:42;7.01;62.11
65824;SHT31;52585;47.566;19.056;2023-03-20T05:05:08;7.00;62.10
65824;SHT31;52585;47.566;19.056;2023-03-20T05:07:34;6.99;62.27
65824;SHT31;52585;47.566;19.056;2023-03-20T05:10:01;6.99;62.33
65824;SHT31;52585;47.566;19.056;2023-03-20T05:12:28;6.98;62.68
65824;SHT31;52585;47.566;19.056;2023-03-20T05:14:54;6.94;62.97
65824;SHT31;52585;47.566;19.056;2023-03-20T05:17:23;6.91;63.10
65824;SHT31;52585;47.566;19.056;2023-03-20T05:19:49;6.90;63.22
65824;SHT31;52585;47.566;19.056;2023-03-20T05:22:15;6.90;63.06
65824;SHT31;52585;47.566;19.056;2023-03-20T05:24:42;6.90;62.89
65824;SHT31;52585;47.566;19.056;2023-03-20T05:27:08;6.91;62.90
65824;SHT31;52585;47.566;19.056;2023-03-20T05:29:35;6.91;62.83
65824;SHT31;52585;47.566;19.056;2023-03-20T05:32:01;6.92;62.68
65824;SHT31;52585;47.566;19.056;2023-03-20T05:34:27;6.92;62.74
65824;SHT31;52585;47.566;19.056;2023-03-20T05:36:53;6.92;62.86
65824;SHT31;52585;47.566;19.056;2023-03-20T05:39:19;6.92;62.86
65824;SHT31;52585;47.566;19.056;2023-03-20T05:41:44;6.93;62.89
65824;SHT31;52585;47.566;19.056;2023-03-20T05:44:10;6.94;63.13
65824;SHT31;52585;47.566;19.056;2023-03-20T05:46:36;6.95;62.99
65824;SHT31;52585;47.566;19.056;2023-03-20T05:49:02;6.96;62.89
65824;SHT31;52585;47.566;19.056;2023-03-20T05:51:28;6.99;62.98
65824;SHT31;52585;47.566;19.056;2023-03-20T05:53:54;6.97;63.49
65824;SHT31;52585;47.566;19.056;2023-03-20T05:56:20;6.96;63.20
65824;SHT31;52585;47.566;19.056;2023-03-20T05:58:45;6.99;63.27
65824;SHT31;52585;47.566;19.056;2023-03-20T06:01:11;7.02;63.46
65824;SHT31;52585;47.566;19.056;2023-03-20T06:03:40;7.06;63.83
65824;SHT31;52585;47.566;19.056;2023-03-20T06:06:06;7.10;64.09
65824;SHT31;52585;47.566;19.056;2023-03-20T06:08:32;7.12;64.16
65824;SHT31;52585;47.566;19.056;2023-03-20T06:11:00;7.17;63.93
65824;SHT31;52585;47.566;19.056;2023-03-20T06:13:28;7.24;63.71
65824;SHT31;52585;47.566;19.056;2023-03-20T06:15:53;7.29;63.73
65824;SHT31;52585;47.566;19.056;2023-03-20T06:18:19;7.34;63.67
65824;SHT31;52585;47.566;19.056;2023-03-20T06:20:44;7.40;63.51
65824;SHT31;52585;47.566;19.056;2023-03-20T06:23:10;7.46;63.48
65824;SHT31;52585;47.566;19.056;2023-03-20T06:25:36;7.51;63.24
65824;SHT31;52585;47.566;19.056;2023-03-20T06:28:03;7.57;63.47
65824;SHT31;52585;47.566;19.056;2023-03-20T06:30:29;7.62;63.36
65824;SHT31;52585;47.566;19.056;2023-03-20T06:32:55;7.68;63.20
65824;SHT31;52585;47.566;19.056;2023-03-20T06:35:20;7.74;62.92
65824;SHT31;52585;47.566;19.056;2023-03-20T06:37:46;7.81;62.98
65824;SHT31;52585;47.566;19.056;2023-03-20T06:40:11;7.86;63.10
65824;SHT31;52585;47.566;19.056;2023-03-20T06:42:37;7.93;63.12
65824;SHT31;52585;47.566;19.056;2023-03-20T06:45:02;7.99;62.97
65824;SHT31;52585;47.566;19.056;2023-03-20T06:47:29;8.05;62.83
65824;SHT31;52585;47.566;19.056;2023-03-20T06:49:55;8.13;62.97
65824;SHT31;52585;47.566;19.056;2023-03-20T06:52:20;8.19;62.51
65824;SHT31;52585;47.566;19.056;2023-03-20T06:54:46;8.25;62.47
65824;SHT31;52585;47.566;19.056;2023-03-20T06:57:12;8.31;62.18
65824;SHT31;52585;47.566;19.056;2023-03-20T06:59:38;8.38;62.03
65824;SHT31;52585;47.566;19.056;2023-03-20T07:02:04;8.44;61.67
65824;SHT31;52585;47.566;19.056;2023-03-20T07:04:31;8.51;61.12
65824;SHT31;52585;47.566;19.056;2023-03-20T07:06:57;8.57;61.07
65824;SHT31;52585;47.566;19.056;2023-03-20T07:09:23;8.63;60.88
65824;SHT31;52585;47.566;19.056;2023-03-20T07:11:49;8.70;60.70
65824;SHT31;52585;47.566;19.056;2023-03-20T07:14:14;8.77;60.51
65824;SHT31;52585;47.566;19.056;2023-03-20T07:16:40;8.82;60.46
65824;SHT31;52585;47.566;19.056;2023-03-20T07:19:06;8.88;60.31
65824;SHT31;52585;47.566;19.056;2023-03-20T07:21:32;8.94;60.06
65824;SHT31;52585;47.566;19.056;2023-03-20T07:23:58;9.01;60.06
65824;SHT31;52585;47.566;19.056;2023-03-20T07:26:25;9.07;60.22
65824;SHT31;52585;47.566;19.056;2023-03-20T07:28:51;9.15;60.18
65824;SHT31;52585;47.566;19.056;2023-03-20T07:31:26;9.23;60.02
65824;SHT31;52585;47.566;19.056;2023-03-20T07:33:53;9.30;59.89
65824;SHT31;52585;47.566;19.056;2023-03-20T07:36:19;9.38;59.74
65824;SHT31;52585;47.566;19.056;2023-03-20T07:38:46;9.45;59.43
65824;SHT31;52585;47.566;19.056;2023-03-20T07:41:11;9.51;59.18
65824;SHT31;52585;47.566;19.056;2023-03-20T07:43:37;9.58;59.06
65824;SHT31;52585;47.566;19.056;2023-03-20T07:46:03;9.63;58.88
65824;SHT31;52585;47.566;19.056;2023-03-20T07:48:32;9.69;59.08
65824;SHT31;52585;47.566;19.056;2023-03-20T07:50:58;9.75;58.62
65824;SHT31;52585;47.566;19.056;2023-03-20T07:53:23;9.81;58.69
65824;SHT31;52585;47.566;19.056;2023-03-20T07:55:49;9.89;58.62
65824;SHT31;52585;47.566;19.056;2023-03-20T07:58:14;9.95;58.53
65824;SHT31;52585;47.566;19.056;2023-03-20T08:00:40;10.01;58.23
65824;SHT31;52585;47.566;19.056;2023-03-20T08:03:06;10.07;58.15
65824;SHT31;52585;47.566;19.056;2023-03-20T08:05:32;10.15;58.11
65824;SHT31;52585;47.566;19.056;2023-03-20T08:07:58;10.21;58.06
65824;SHT31;52585;47.566;19.056;2023-03-20T08:10:23;10.28;57.94
65824;SHT31;52585;47.566;19.056;2023-03-20T08:12:49;10.38;57.76
65824;SHT31;52585;47.566;19.056;2023-03-20T08:15:14;10.45;57.68
65824;SHT31;52585;47.566;19.056;2023-03-20T08:17:41;10.56;57.53
65824;SHT31;52585;47.566;19.056;2023-03-20T08:20:11;10.61;57.17
65824;SHT31;52585;47.566;19.056;2023-03-20T08:22:38;10.68;57.12
65824;SHT31;52585;47.566;19.056;2023-03-20T08:25:05;10.76;57.14
65824;SHT31;52585;47.566;19.056;2023-03-20T08:27:32;10.83;57.11
65824;SHT31;52585;47.566;19.056;2023-03-20T08:29:59;10.92;56.51
65824;SHT31;52585;47.566;19.056;2023-03-20T08:32:25;10.99;56.43
65824;SHT31;52585;47.566;19.056;2023-03-20T08:34:51;11.06;56.43
65824;SHT31;52585;47.566;19.056;2023-03-20T08:37:19;11.12;56.46
65824;SHT31;52585;47.566;19.056;2023-03-20T08:39:46;11.19;56.46
65824;SHT31;52585;47.566;19.056;2023-03-20T08:42:12;11.25;56.40
65824;SHT31;52585;47.566;19.056;2023-03-20T08:44:38;11.32;56.37
65824;SHT31;52585;47.566;19.056;2023-03-20T08:47:04;11.37;56.23
65824;SHT31;52585;47.566;19.056;2023-03-20T08:49:32;11.45;56.08
65824;SHT31;52585;47.566;19.056;2023-03-20T08:51:58;11.52;55.69
65824;SHT31;52585;47.566;19.056;2023-03-20T08:54:25;11.57;55.38
65824;SHT31;52585;47.566;19.056;2023-03-20T08:56:51;11.65;54.83
65824;SHT31;52585;47.566;19.056;2023-03-20T08:59:17;11.72;54.32
65824;SHT31;52585;47.566;19.056;2023-03-20T09:01:43;11.79;53.67
65824;SHT31;52585;47.566;19.056;2023-03-20T09:04:10;11.85;53.43
65824;SHT31;52585;47.566;19.056;2023-03-20T09:06:37;11.90;53.00
65824;SHT31;52585;47.566;19.056;2023-03-20T09:09:04;11.97;52.79
65824;SHT31;52585;47.566;19.056;2023-03-20T09:11:30;12.02;52.71
65824;SHT31;52585;47.566;19.056;2023-03-20T09:13:57;12.07;52.58
65824;SHT31;52585;47.566;19.056;2023-03-20T09:16:24;12.12;52.47
65824;SHT31;52585;47.566;19.056;2023-03-20T09:18:51;12.19;52.37
65824;SHT31;52585;47.566;19.056;2023-03-20T09:21:17;12.24;51.80
65824;SHT31;52585;47.566;19.056;2023-03-20T09:23:42;12.31;51.78
65824;SHT31;52585;47.566;19.056;2023-03-20T09:26:08;12.37;51.79
65824;SHT31;52585;47.566;19.056;2023-03-20T09:28:34;12.42;51.75
65824;SHT31;52585;47.566;19.056;2023-03-20T09:30:59;12.48;51.81
65824;SHT31;52585;47.566;19.056;2023-03-20T09:33:25;12.54;51.92
65824;SHT31;52585;47.566;19.056;2023-03-20T09:35:52;12.61;51.60
65824;SHT31;52585;47.566;19.056;2023-03-20T09:38:18;12.67;51.44
65824;SHT31;52585;47.566;19.056;2023-03-20T09:40:58;12.72;51.32
65824;SHT31;52585;47.566;19.056;2023-03-20T09:49:39;12.91;50.81
65824;SHT31;52585;47.566;19.056;2023-03-20T09:52:52;12.97;50.68
65824;SHT31;52585;47.566;19.056;2023-03-20T09:55:40;13.03;50.47
65824;SHT31;52585;47.566;19.056;2023-03-20T09:58:12;13.10;50.13
65824;SHT31;52585;47.566;19.056;2023-03-20T10:00:45;13.15;50.39
65824;SHT31;52585;47.566;19.056;2023-03-20T10:03:23;13.21;50.72
65824;SHT31;52585;47.566;19.056;2023-03-20T10:05:59;13.29;50.35
65824;SHT31;52585;47.566;19.056;2023-03-20T10:08:34;13.35;50.11
65824;SHT31;52585;47.566;19.056;2023-03-20T10:11:05;13.41;50.21
65824;SHT31;52585;47.566;19.056;2023-03-20T10:19:47;13.59;49.99
65824;SHT31;52585;47.566;19.056;2023-03-20T10:22:24;13.65;49.80
65824;SHT31;52585;47.566;19.056;2023-03-20T10:36:45;13.92;48.70
65824;SHT31;52585;47.566;19.056;2023-03-20T10:42:24;14.05;48.77
65824;SHT31;52585;47.566;19.056;2023-03-20T10:48:05;14.18;48.58
65824;SHT31;52585;47.566;19.056;2023-03-20T10:50:58;14.26;48.80
65824;SHT31;52585;47.566;19.056;2023-03-20T10:56:12;14.43;48.29
65824;SHT31;52585;47.566;19.056;2023-03-20T10:58:53;14.50;48.00
65824;SHT31;52585;47.566;19.056;2023-03-20T11:01:30;14.58;48.14
65824;SHT31;52585;47.566;19.056;2023-03-20T11:03:56;14.61;48.02
65824;SHT31;52585;47.566;19.056;2023-03-20T11:06:26;14.68;47.86
65824;SHT31;52585;47.566;19.056;2023-03-20T11:08:57;14.76;47.54
65824;SHT31;52585;47.566;19.056;2023-03-20T11:11:45;14.83;47.14
65824;SHT31;52585;47.566;19.056;2023-03-20T11:14:19;14.88;47.44
65824;SHT31;52585;47.566;19.056;2023-03-20T11:16:48;14.94;47.21
65824;SHT31;52585;47.566;19.056;2023-03-20T11:19:18;14.99;47.32
65824;SHT31;52585;47.566;19.056;2023-03-20T11:21:51;15.03;46.91
65824;SHT31;52585;47.566;19.056;2023-03-20T11:27:26;15.08;47.48
65824;SHT31;52585;47.566;19.056;2023-03-20T11:29:59;15.11;47.06
65824;SHT31;52585;47.566;19.056;2023-03-20T11:32:35;15.13;47.21
65824;SHT31;52585;47.566;19.056;2023-03-20T11:35:13;15.16;46.78
65824;SHT31;52585;47.566;19.056;2023-03-20T11:37:51;15.20;46.69
65824;SHT31;52585;47.566;19.056;2023-03-20T11:40:33;15.22;46.73
65824;SHT31;52585;47.566;19.056;2023-03-20T11:45:26;15.28;46.87
65824;SHT31;52585;47.566;19.056;2023-03-20T11:48:00;15.31;46.87
65824;SHT31;52585;47.566;19.056;2023-03-20T11:53:04;15.36;47.01
65824;SHT31;52585;47.566;19.056;2023-03-20T11:55:59;15.40;47.18
65824;SHT31;52585;47.566;19.056;2023-03-20T11:59:03;15.43;47.30
65824;SHT31;52585;47.566;19.056;2023-03-20T12:01:37;15.45;47.41
65824;SHT31;52585;47.566;19.056;2023-03-20T12:14:29;15.59;47.06
65824;SHT31;52585;47.566;19.056;2023-03-20T12:20:27;15.66;46.96
65824;SHT31;52585;47.566;19.056;2023-03-20T12:23:01;15.68;46.94
65824;SHT31;52585;47.566;19.056;2023-03-20T12:26:03;15.70;46.89
65824;SHT31;52585;47.566;19.056;2023-03-20T12:36:34;15.75;47.11
65824;SHT31;52585;47.566;19.056;2023-03-20T12:39:15;15.77;47.09
65824;SHT31;52585;47.566;19.056;2023-03-20T12:41:52;15.80;47.16
65824;SHT31;52585;47.566;19.056;2023-03-20T12:58:27;15.89;46.76
65824;SHT31;52585;47.566;19.056;2023-03-20T13:01:38;15.90;46.69
65824;SHT31;52585;47.566;19.056;2023-03-20T13:12:36;15.96;46.73
65824;SHT31;52585;47.566;19.056;2023-03-20T13:28:59;16.04;46.85
65824;SHT31;52585;47.566;19.056;2023-03-20T13:37:46;16.12;46.56
65824;SHT31;52585;47.566;19.056;2023-03-20T13:42:56;16.19;46.87
65824;SHT31;52585;47.566;19.056;2023-03-20T13:45:41;16.22;46.64
65824;SHT31;52585;47.566;19.056;2023-03-20T13:51:04;16.29;46.61
65824;SHT31;52585;47.566;19.056;2023-03-20T13:53:56;16.33;46.48
65824;SHT31;52585;47.566;19.056;2023-03-20T14:00:04;16.45;46.52
65824;SHT31;52585;47.566;19.056;2023-03-20T14:03:07;16.47;46.25
65824;SHT31;52585;47.566;19.056;2023-03-20T14:05:50;16.48;46.32
65824;SHT31;52585;47.566;19.056;2023-03-20T14:13:55;16.46;46.26
65824;SHT31;52585;47.566;19.056;2023-03-20T14:16:59;16.46;46.23
65824;SHT31;52585;47.566;19.056;2023-03-20T14:19:26;16.46;46.35
65824;SHT31;52585;47.566;19.056;2023-03-20T14:21:54;16.47;46.42
65824;SHT31;52585;47.566;19.056;2023-03-20T14:24:21;16.45;46.39
65824;SHT31;52585;47.566;19.056;2023-03-20T14:26:53;16.45;46.23
65824;SHT31;52585;47.566;19.056;2023-03-20T14:32:44;16.45;46.68
65824;SHT31;52585;47.566;19.056;2023-03-20T14:34:59;16.46;46.58
65824;SHT31;52585;47.566;19.056;2023-03-20T14:40:58;16.54;46.79
65824;SHT31;52585;47.566;19.056;2023-03-20T14:52:25;16.75;46.73
65824;SHT31;52585;47.566;19.056;2023-03-20T14:57:54;16.85;46.64
65824;SHT31;52585;47.566;19.056;2023-03-20T15:01:00;16.84;46.61
65824;SHT31;52585;47.566;19.056;2023-03-20T15:03:29;16.85;46.64
65824;SHT31;52585;47.566;19.056;2023-03-20T15:05:56;16.88;46.71
65824;SHT31;52585;47.566;19.056;2023-03-20T15:08:29;16.91;46.60
65824;SHT31;52585;47.566;19.056;2023-03-20T15:11:06;16.95;46.60
65824;SHT31;52585;47.566;19.056;2023-03-20T15:13:35;16.99;46.58
65824;SHT31;52585;47.566;19.056;2023-03-20T15:18:41;17.10;46.59
65824;SHT31;52585;47.566;19.056;2023-03-20T15:23:45;17.22;46.37
65824;SHT31;52585;47.566;19.056;2023-03-20T15:26:13;17.23;46.42
65824;SHT31;52585;47.566;19.056;2023-03-20T15:28:42;17.26;46.54
65824;SHT31;52585;47.566;19.056;2023-03-20T15:31:24;17.31;46.49
65824;SHT31;52585;47.566;19.056;2023-03-20T15:33:57;17.35;46.41
65824;SHT31;52585;47.566;19.056;2023-03-20T15:36:29;17.37;46.46
65824;SHT31;52585;47.566;19.056;2023-03-20T15:39:13;17.34;46.52
65824;SHT31;52585;47.566;19.056;2023-03-20T15:41:51;17.31;46.55
65824;SHT31;52585;47.566;19.056;2023-03-20T15:44:22;17.27;46.58
65824;SHT31;52585;47.566;19.056;2023-03-20T15:47:01;17.24;46.69
65824;SHT31;52585;47.566;19.056;2023-03-20T15:49:37;17.26;46.67
65824;SHT31;52585;47.566;19.056;2023-03-20T15:54:50;17.40;46.70
65824;SHT31;52585;47.566;19.056;2023-03-20T15:57:29;17.45;46.62
65824;SHT31;52585;47.566;19.056;2023-03-20T15:59:59;17.43;46.72
65824;SHT31;52585;47.566;19.056;2023-03-20T16:02:25;17.41;46.81
65824;SHT31;52585;47.566;19.056;2023-03-20T16:04:53;17.38;46.79
65824;SHT31;52585;47.566;19.056;2023-03-20T16:07:21;17.36;46.82
65824;SHT31;52585;47.566;19.056;2023-03-20T16:09:56;17.31;46.81
65824;SHT31;52585;47.566;19.056;2023-03-20T16:12:23;17.27;46.93
65824;SHT31;52585;47.566;19.056;2023-03-20T16:14:51;17.23;46.87
65824;SHT31;52585;47.566;19.056;2023-03-20T16:17:19;17.20;46.99
65824;SHT31;52585;47.566;19.056;2023-03-20T16:19:49;17.18;46.86
65824;SHT31;52585;47.566;19.056;2023-03-20T16:22:17;17.13;46.89
65824;SHT31;52585;47.566;19.056;2023-03-20T16:24:55;17.08;47.03
65824;SHT31;52585;47.566;19.056;2023-03-20T16:27:26;17.03;47.02
65824;SHT31;52585;47.566;19.056;2023-03-20T16:30:05;16.97;47.04
65824;SHT31;52585;47.566;19.056;2023-03-20T16:32:40;16.91;47.04
65824;SHT31;52585;47.566;19.056;2023-03-20T16:35:31;16.86;47.39
65824;SHT31;52585;47.566;19.056;2023-03-20T16:38:25;16.81;47.46
65824;SHT31;52585;47.566;19.056;2023-03-20T16:40:56;16.75;47.62
65824;SHT31;52585;47.566;19.056;2023-03-20T16:43:40;16.70;47.79
65824;SHT31;52585;47.566;19.056;2023-03-20T16:46:16;16.65;47.82
65824;SHT31;52585;47.566;19.056;2023-03-20T16:48:46;16.59;47.98
65824;SHT31;52585;47.566;19.056;2023-03-20T16:51:37;16.55;48.01
65824;SHT31;52585;47.566;19.056;2023-03-20T16:54:03;16.51;48.00
65824;SHT31;52585;47.566;19.056;2023-03-20T16:56:35;16.48;48.10
65824;SHT31;52585;47.566;19.056;2023-03-20T16:59:10;16.44;48.12
65824;SHT31;52585;47.566;19.056;2023-03-20T17:01:44;16.38;48.13
65824;SHT31;52585;47.566;19.056;2023-03-20T17:07:00;16.26;48.42
65824;SHT31;52585;47.566;19.056;2023-03-20T17:09:50;16.20;48.45
65824;SHT31;52585;47.566;19.056;2023-03-20T17:12:25;16.15;48.50
65824;SHT31;52585;47.566;19.056;2023-03-20T17:14:56;16.11;48.49
65824;SHT31;52585;47.566;19.056;2023-03-20T17:17:22;16.08;48.61
65824;SHT31;52585;47.566;19.056;2023-03-20T17:19:50;16.03;48.67
65824;SHT31;52585;47.566;19.056;2023-03-20T17:22:23;15.98;48.88
65824;SHT31;52585;47.566;19.056;2023-03-20T17:24:54;15.92;49.09
65824;SHT31;52585;47.566;19.056;2023-03-20T17:27:21;15.88;49.16
65824;SHT31;52585;47.566;19.056;2023-03-20T17:29:48;15.82;49.21
65824;SHT31;52585;47.566;19.056;2023-03-20T17:32:15;15.75;49.24
65824;SHT31;52585;47.566;19.056;2023-03-20T17:34:44;15.70;49.31
65824;SHT31;52585;47.566;19.056;2023-03-20T17:37:24;15.63;49.53
65824;SHT31;52585;47.566;19.056;2023-03-20T17:39:52;15.57;49.62
65824;SHT31;52585;47.566;19.056;2023-03-20T17:42:21;15.53;49.68
65824;SHT31;52585;47.566;19.056;2023-03-20T17:44:55;15.45;49.87
65824;SHT31;52585;47.566;19.056;2023-03-20T17:47:28;15.38;49.92
65824;SHT31;52585;47.566;19.056;2023-03-20T17:49:54;15.31;50.03
65824;SHT31;52585;47.566;19.056;2023-03-20T17:52:21;15.22;50.29
65824;SHT31;52585;47.566;19.056;2023-03-20T17:54:51;15.11;50.67
65824;SHT31;52585;47.566;19.056;2023-03-20T17:57:19;15.05;50.83
65824;SHT31;52585;47.566;19.056;2023-03-20T17:59:49;14.98;51.01
65824;SHT31;52585;47.566;19.056;2023-03-20T18:02:19;14.91;51.20
65824;SHT31;52585;47.566;19.056;2023-03-20T18:04:45;14.84;51.48
65824;SHT31;52585;47.566;19.056;2023-03-20T18:07:11;14.77;51.54
65824;SHT31;52585;47.566;19.056;2023-03-20T18:09:40;14.72;51.66
65824;SHT31;52585;47.566;19.056;2023-03-20T18:12:11;14.67;51.68
65824;SHT31;52585;47.566;19.056;2023-03-20T18:14:41;14.65;51.74
65824;SHT31;52585;47.566;19.056;2023-03-20T18:17:10;14.62;51.77
65824;SHT31;52585;47.566;19.056;2023-03-20T18:19:39;14.56;52.10
65824;SHT31;52585;47.566;19.056;2023-03-20T18:22:05;14.49;52.29
65824;SHT31;52585;47.566;19.056;2023-03-20T18:24:32;14.43;52.42
65824;SHT31;52585;47.566;19.056;2023-03-20T18:26:58;14.41;52.40
65824;SHT31;52585;47.566;19.056;2023-03-20T18:29:25;14.37;52.40
65824;SHT31;52585;47.566;19.056;2023-03-20T18:31:51;14.36;52.41
65824;SHT31;52585;47.566;19.056;2023-03-20T18:34:18;14.35;52.41
65824;SHT31;52585;47.566;19.056;2023-03-20T18:36:46;14.31;52.61
65824;SHT31;52585;47.566;19.056;2023-03-20T18:39:22;14.29;52.59
65824;SHT31;52585;47.566;19.056;2023-03-20T18:41:49;14.27;52.58
65824;SHT31;52585;47.566;19.056;2023-03-20T18:44:18;14.26;52.64
65824;SHT31;52585;47.566;19.056;2023-03-20T18:46:44;14.22;52.57
65824;SHT31;52585;47.566;19.056;2023-03-20T18:49:17;14.20;52.62
65824;SHT31;52585;47.566;19.056;2023-03-20T18:51:44;14.18;52.63
65824;SHT31;52585;47.566;19.056;2023-03-20T18:54:11;14.18;52.56
65824;SHT31;52585;47.566;19.056;2023-03-20T18:56:39;14.16;52.66